マカッサル の空港の天気 - METARとTAF

ハサヌディン国際空港 ( WAAA / UPG ) - インドネシア 南スラウェシ州マカッサル
飛行場実況気象(Metar)
観測時間09/22 08:30 WITA (09/22 00:30 UTC)
風向・風速東北東 1m/s
視程10km以上
天気現象
少しの雲 雲底高度 610m
気温29℃
湿度74%
気圧1010hPa
METARWAAA 220030Z 07001KT 9999 FEW020 29/24 Q1010 NOSIG
過去の天気等 Google飛行場航空写真 Wunderground天気予報

過去48時間のMETAR

飛行場予報(TAF)
発表時間: 9/22 07:00 WITA (9/21 23:00 UTC)
予報対象時間: 22日8時 WITA ~ 23日14時 WITA
風向・風速西南西 2m/s
視程10km以上
全天の4割程度の雲 雲底高度 610m
22日14時 WITA ~ 22日18時 WITA に一時的に
視程5000m
天気現象弱い雷雨
少しの積乱雲 雲底高度 580m
22日18時 WITA ~ 22日20時 WITA に徐々に
風向・風速東 3m/s
TAF WAAA 212300Z 2200/2306 25003KT 9999 SCT020
TEMPO 2206/2210 5000 -TSRA FEW019CB
BECMG 2210/2212 10005KT